This is the latest recevied weather packets stored in our database for station/object OE5WWO. If no packets are shown the sender has not sent any weather packets the latest 10 day(s).
| Time | Temp. | Humidity | Pressure | Rain* | Wind** | Luminosity | Snow |
|---|---|---|---|---|---|---|---|
| 1777105894 | 15.56° C | 50% | 1017.2 hPa | 0 mm | - | - | - |
| 1777102252 | 13.89° C | 48% | 1017.4 hPa | 0 mm | - | - | - |
| 1777101040 | 13.89° C | 49% | 1017.5 hPa | 0 mm | - | - | - |
| 1777099554 | 12.22° C | 57% | 1017.6 hPa | 0 mm | - | - | - |
| 1777098339 | 10.56° C | 62% | 1017.6 hPa | 0 mm | - | - | - |
| 1777096240 | 10° C | 66% | 1017.4 hPa | 0 mm | - | - | - |
| 1777095067 | 9.44° C | 71% | 1017.4 hPa | 0 mm | - | - | - |
| 1777093840 | 6.67° C | 84% | 1017.5 hPa | 0 mm | - | - | - |
| 1777093542 | 6.11° C | 85% | 1017.4 hPa | 0 mm | - | - | - |
| 1777092358 | 5° C | 84% | 1017.2 hPa | 0 mm | - | - | - |
| 1777091139 | 4.44° C | 83% | 1017.1 hPa | 0 mm | - | - | - |
| 1777090841 | 4.44° C | 82% | 1017.1 hPa | 0 mm | - | - | - |
| 1777090240 | 5° C | 82% | 1016.9 hPa | 0 mm | - | - | - |
| 1777087853 | 5° C | 81% | 1016.8 hPa | 0 mm | - | - | - |
| 1777086051 | 5.56° C | 80% | 1017 hPa | 0 mm | - | - | - |
| 1777085440 | 5.56° C | 80% | 1017 hPa | 0 mm | - | - | - |
| 1777085152 | 5.56° C | 80% | 1017 hPa | 0 mm | - | - | - |
| 1777083039 | 6.11° C | 78% | 1017.1 hPa | 0 mm | - | - | - |
| 1777081552 | 6.11° C | 76% | 1017.1 hPa | 0 mm | - | - | - |
| 1777079138 | 6.67° C | 76% | 1017 hPa | 0 mm | - | - | - |
* Rain latest hour (hover to see other rain measurements)
** Current wind speed in m/s (hover to see current wind gust speed)